sensor_id;sensor_type;location;lat;lon;timestamp;pressure;altitude;pressure_sealevel;temperature;humidity
76406;BME280;65234;50.044;19.258;2022-12-10T00:01:05;97386.06;;;0.71;100.00
76406;BME280;65234;50.044;19.258;2022-12-10T00:03:32;97387.56;;;0.68;100.00
76406;BME280;65234;50.044;19.258;2022-12-10T00:06:00;97374.38;;;0.70;100.00
76406;BME280;65234;50.044;19.258;2022-12-10T00:08:25;97385.28;;;0.70;100.00
76406;BME280;65234;50.044;19.258;2022-12-10T00:10:52;97377.09;;;0.70;100.00
76406;BME280;65234;50.044;19.258;2022-12-10T00:13:17;97383.38;;;0.74;100.00
76406;BME280;65234;50.044;19.258;2022-12-10T00:15:43;97379.88;;;0.74;100.00
76406;BME280;65234;50.044;19.258;2022-12-10T00:18:09;97380.97;;;0.69;100.00
76406;BME280;65234;50.044;19.258;2022-12-10T00:20:45;97378.72;;;0.75;100.00
76406;BME280;65234;50.044;19.258;2022-12-10T00:23:11;97375.22;;;0.74;100.00
76406;BME280;65234;50.044;19.258;2022-12-10T00:25:37;97376.72;;;0.72;100.00
76406;BME280;65234;50.044;19.258;2022-12-10T00:28:03;97374.31;;;0.67;100.00
76406;BME280;65234;50.044;19.258;2022-12-10T00:30:29;97382.91;;;0.69;100.00
76406;BME280;65234;50.044;19.258;2022-12-10T00:32:55;97381.50;;;0.78;100.00
76406;BME280;65234;50.044;19.258;2022-12-10T00:35:20;97376.03;;;0.78;100.00
76406;BME280;65234;50.044;19.258;2022-12-10T00:37:47;97376.09;;;0.82;100.00
76406;BME280;65234;50.044;19.258;2022-12-10T00:40:13;97379.56;;;0.79;100.00
76406;BME280;65234;50.044;19.258;2022-12-10T00:42:39;97376.03;;;0.78;100.00
76406;BME280;65234;50.044;19.258;2022-12-10T00:45:05;97384.22;;;0.78;100.00
76406;BME280;65234;50.044;19.258;2022-12-10T00:47:31;97381.81;;;0.73;100.00
76406;BME280;65234;50.044;19.258;2022-12-10T00:49:57;97383.78;;;0.76;100.00
76406;BME280;65234;50.044;19.258;2022-12-10T00:52:22;97396.97;;;0.71;100.00
76406;BME280;65234;50.044;19.258;2022-12-10T00:54:49;97392.56;;;0.63;100.00
76406;BME280;65234;50.044;19.258;2022-12-10T00:57:15;97401.63;;;0.70;100.00
76406;BME280;65234;50.044;19.258;2022-12-10T00:59:41;97403.13;;;0.68;100.00
76406;BME280;65234;50.044;19.258;2022-12-10T01:02:07;97409.69;;;0.63;100.00
76406;BME280;65234;50.044;19.258;2022-12-10T01:04:32;97405.44;;;0.66;100.00
76406;BME280;65234;50.044;19.258;2022-12-10T01:06:58;97397.56;;;0.61;100.00
76406;BME280;65234;50.044;19.258;2022-12-10T01:09:26;97397.66;;;0.68;100.00
76406;BME280;65234;50.044;19.258;2022-12-10T01:11:54;97398.06;;;0.66;100.00
76406;BME280;65234;50.044;19.258;2022-12-10T01:14:22;97403.84;;;0.65;100.00
76406;BME280;65234;50.044;19.258;2022-12-10T01:16:48;97411.63;;;0.63;100.00
76406;BME280;65234;50.044;19.258;2022-12-10T01:19:14;97406.56;;;0.65;100.00
76406;BME280;65234;50.044;19.258;2022-12-10T01:21:40;97405.53;;;0.73;100.00
76406;BME280;65234;50.044;19.258;2022-12-10T01:24:06;97404.66;;;0.65;100.00
76406;BME280;65234;50.044;19.258;2022-12-10T01:26:33;97410.19;;;0.72;100.00
76406;BME280;65234;50.044;19.258;2022-12-10T01:29:03;97408.69;;;0.75;100.00
76406;BME280;65234;50.044;19.258;2022-12-10T01:31:31;97406.03;;;0.78;100.00
76406;BME280;65234;50.044;19.258;2022-12-10T01:33:57;97424.31;;;0.78;100.00
76406;BME280;65234;50.044;19.258;2022-12-10T01:36:25;97430.25;;;0.61;100.00
76406;BME280;65234;50.044;19.258;2022-12-10T01:38:52;97433.81;;;0.65;100.00
76406;BME280;65234;50.044;19.258;2022-12-10T01:41:19;97431.91;;;0.65;100.00
76406;BME280;65234;50.044;19.258;2022-12-10T01:43:52;97434.28;;;0.67;100.00
76406;BME280;65234;50.044;19.258;2022-12-10T01:46:21;97431.09;;;0.65;100.00
76406;BME280;65234;50.044;19.258;2022-12-10T01:48:47;97432.00;;;0.72;100.00
76406;BME280;65234;50.044;19.258;2022-12-10T01:51:13;97429.72;;;0.74;100.00
76406;BME280;65234;50.044;19.258;2022-12-10T01:53:41;97424.25;;;0.74;100.00
76406;BME280;65234;50.044;19.258;2022-12-10T01:56:09;97428.81;;;0.67;100.00
76406;BME280;65234;50.044;19.258;2022-12-10T01:58:35;97422.63;;;0.70;100.00
76406;BME280;65234;50.044;19.258;2022-12-10T02:01:07;97428.03;;;0.66;100.00
76406;BME280;65234;50.044;19.258;2022-12-10T02:03:43;97424.91;;;0.68;100.00
76406;BME280;65234;50.044;19.258;2022-12-10T02:06:30;97429.72;;;0.74;100.00
76406;BME280;65234;50.044;19.258;2022-12-10T02:09:04;97421.09;;;0.72;100.00
76406;BME280;65234;50.044;19.258;2022-12-10T02:11:36;97421.16;;;0.76;100.00
76406;BME280;65234;50.044;19.258;2022-12-10T02:14:11;97426.75;;;0.83;100.00
76406;BME280;65234;50.044;19.258;2022-12-10T02:16:41;97421.16;;;0.76;100.00
76406;BME280;65234;50.044;19.258;2022-12-10T02:19:17;97428.91;;;0.74;100.00
76406;BME280;65234;50.044;19.258;2022-12-10T02:21:48;97434.00;;;0.75;100.00
76406;BME280;65234;50.044;19.258;2022-12-10T02:24:18;97431.84;;;0.88;100.00
76406;BME280;65234;50.044;19.258;2022-12-10T02:26:47;97429.09;;;0.84;100.00
76406;BME280;65234;50.044;19.258;2022-12-10T02:29:19;97435.72;;;0.87;100.00
76406;BME280;65234;50.044;19.258;2022-12-10T02:31:48;97436.78;;;0.79;100.00
76406;BME280;65234;50.044;19.258;2022-12-10T02:34:17;97441.72;;;0.70;100.00
76406;BME280;65234;50.044;19.258;2022-12-10T02:36:46;97441.75;;;0.73;100.00
76406;BME280;65234;50.044;19.258;2022-12-10T02:39:17;97449.03;;;0.66;100.00
76406;BME280;65234;50.044;19.258;2022-12-10T02:41:48;97457.75;;;0.75;100.00
76406;BME280;65234;50.044;19.258;2022-12-10T02:44:18;97460.03;;;0.73;100.00
76406;BME280;65234;50.044;19.258;2022-12-10T02:46:47;97464.66;;;0.69;100.00
76406;BME280;65234;50.044;19.258;2022-12-10T02:49:14;97466.47;;;0.61;100.00
76406;BME280;65234;50.044;19.258;2022-12-10T02:51:41;97465.63;;;0.57;100.00
76406;BME280;65234;50.044;19.258;2022-12-10T02:54:39;97456.06;;;0.67;100.00
76406;BME280;65234;50.044;19.258;2022-12-10T02:57:14;97441.94;;;0.61;100.00
76406;BME280;65234;50.044;19.258;2022-12-10T02:59:49;97436.59;;;0.68;100.00
76406;BME280;65234;50.044;19.258;2022-12-10T03:02:26;97441.28;;;0.68;100.00
76406;BME280;65234;50.044;19.258;2022-12-10T03:04:58;97444.00;;;0.68;100.00
76406;BME280;65234;50.044;19.258;2022-12-10T03:07:30;97447.44;;;0.65;100.00
76406;BME280;65234;50.044;19.258;2022-12-10T03:10:03;97433.53;;;0.70;100.00
76406;BME280;65234;50.044;19.258;2022-12-10T03:12:35;97455.03;;;0.75;100.00
76406;BME280;65234;50.044;19.258;2022-12-10T03:15:08;97448.84;;;0.78;100.00
76406;BME280;65234;50.044;19.258;2022-12-10T03:17:36;97464.75;;;0.76;100.00
76406;BME280;65234;50.044;19.258;2022-12-10T03:20:06;97453.06;;;0.75;100.00
76406;BME280;65234;50.044;19.258;2022-12-10T03:22:33;97459.75;;;0.78;100.00
76406;BME280;65234;50.044;19.258;2022-12-10T03:25:00;97464.69;;;0.72;100.00
76406;BME280;65234;50.044;19.258;2022-12-10T03:27:27;97466.22;;;0.70;100.00
76406;BME280;65234;50.044;19.258;2022-12-10T03:29:56;97466.63;;;0.72;100.00
76406;BME280;65234;50.044;19.258;2022-12-10T03:32:26;97469.81;;;0.74;100.00
76406;BME280;65234;50.044;19.258;2022-12-10T03:34:55;97470.09;;;0.69;100.00
76406;BME280;65234;50.044;19.258;2022-12-10T03:37:23;97482.16;;;0.68;100.00
76406;BME280;65234;50.044;19.258;2022-12-10T03:39:49;97482.59;;;0.70;100.00
76406;BME280;65234;50.044;19.258;2022-12-10T03:42:16;97482.59;;;0.70;100.00
76406;BME280;65234;50.044;19.258;2022-12-10T03:44:42;97489.53;;;0.67;100.00
76406;BME280;65234;50.044;19.258;2022-12-10T03:47:10;97490.31;;;0.68;100.00
76406;BME280;65234;50.044;19.258;2022-12-10T03:49:40;97494.06;;;0.60;100.00
76406;BME280;65234;50.044;19.258;2022-12-10T03:52:06;97481.34;;;0.67;100.00
76406;BME280;65234;50.044;19.258;2022-12-10T03:54:32;97478.72;;;0.71;100.00
76406;BME280;65234;50.044;19.258;2022-12-10T03:56:57;97478.78;;;0.74;100.00
76406;BME280;65234;50.044;19.258;2022-12-10T03:59:23;97487.13;;;0.62;100.00
76406;BME280;65234;50.044;19.258;2022-12-10T04:01:49;97498.09;;;0.66;100.00
76406;BME280;65234;50.044;19.258;2022-12-10T04:04:15;97504.28;;;0.63;100.00
76406;BME280;65234;50.044;19.258;2022-12-10T04:06:42;97510.56;;;0.67;100.00
76406;BME280;65234;50.044;19.258;2022-12-10T04:09:09;97503.41;;;0.59;100.00
76406;BME280;65234;50.044;19.258;2022-12-10T04:11:36;97514.44;;;0.66;100.00
76406;BME280;65234;50.044;19.258;2022-12-10T04:14:02;97512.84;;;0.65;100.00
76406;BME280;65234;50.044;19.258;2022-12-10T04:16:28;97509.41;;;0.68;100.00
76406;BME280;65234;50.044;19.258;2022-12-10T04:18:57;97512.13;;;0.68;100.00
76406;BME280;65234;50.044;19.258;2022-12-10T04:21:23;97518.34;;;0.68;100.00
76406;BME280;65234;50.044;19.258;2022-12-10T04:23:50;97504.00;;;0.71;100.00
76406;BME280;65234;50.044;19.258;2022-12-10T04:26:16;97500.88;;;0.69;100.00
76406;BME280;65234;50.044;19.258;2022-12-10T04:28:42;97504.69;;;0.65;100.00
76406;BME280;65234;50.044;19.258;2022-12-10T04:31:08;97520.34;;;0.71;100.00
76406;BME280;65234;50.044;19.258;2022-12-10T04:33:34;97524.47;;;0.62;100.00
76406;BME280;65234;50.044;19.258;2022-12-10T04:35:59;97543.84;;;0.57;100.00
76406;BME280;65234;50.044;19.258;2022-12-10T04:38:25;97544.88;;;0.48;100.00
76406;BME280;65234;50.044;19.258;2022-12-10T04:40:52;97534.75;;;0.49;100.00
76406;BME280;65234;50.044;19.258;2022-12-10T04:43:18;97533.38;;;0.59;100.00
76406;BME280;65234;50.044;19.258;2022-12-10T04:45:43;97524.78;;;0.57;100.00
76406;BME280;65234;50.044;19.258;2022-12-10T04:48:09;97527.56;;;0.60;100.00
76406;BME280;65234;50.044;19.258;2022-12-10T04:50:35;97525.22;;;0.59;100.00
76406;BME280;65234;50.044;19.258;2022-12-10T04:53:01;97522.91;;;0.61;100.00
76406;BME280;65234;50.044;19.258;2022-12-10T04:55:26;97532.66;;;0.62;100.00
76406;BME280;65234;50.044;19.258;2022-12-10T04:57:54;97536.41;;;0.54;100.00
76406;BME280;65234;50.044;19.258;2022-12-10T05:00:19;97545.38;;;0.54;100.00
76406;BME280;65234;50.044;19.258;2022-12-10T05:02:48;97553.75;;;0.45;100.00
76406;BME280;65234;50.044;19.258;2022-12-10T05:05:13;97565.81;;;0.44;100.00
76406;BME280;65234;50.044;19.258;2022-12-10T05:07:39;97567.66;;;0.40;100.00
76406;BME280;65234;50.044;19.258;2022-12-10T05:10:05;97564.22;;;0.43;100.00
76406;BME280;65234;50.044;19.258;2022-12-10T05:12:31;97575.84;;;0.40;100.00
76406;BME280;65234;50.044;19.258;2022-12-10T05:14:58;97580.16;;;0.41;100.00
76406;BME280;65234;50.044;19.258;2022-12-10T05:17:25;97567.72;;;0.44;100.00
76406;BME280;65234;50.044;19.258;2022-12-10T05:19:50;97588.72;;;0.43;100.00
76406;BME280;65234;50.044;19.258;2022-12-10T05:22:16;97583.94;;;0.37;100.00
76406;BME280;65234;50.044;19.258;2022-12-10T05:24:42;97582.75;;;0.34;100.00
76406;BME280;65234;50.044;19.258;2022-12-10T05:27:08;97575.34;;;0.35;100.00
76406;BME280;65234;50.044;19.258;2022-12-10T05:29:33;97584.38;;;0.39;100.00
76406;BME280;65234;50.044;19.258;2022-12-10T05:32:01;97580.94;;;0.42;100.00
76406;BME280;65234;50.044;19.258;2022-12-10T05:34:27;97571.69;;;0.46;100.00
76406;BME280;65234;50.044;19.258;2022-12-10T05:36:53;97566.66;;;0.48;100.00
76406;BME280;65234;50.044;19.258;2022-12-10T05:39:19;97563.88;;;0.45;100.00
76406;BME280;65234;50.044;19.258;2022-12-10T05:41:45;97553.03;;;0.48;100.00
76406;BME280;65234;50.044;19.258;2022-12-10T05:44:11;97546.94;;;0.55;100.00
76406;BME280;65234;50.044;19.258;2022-12-10T05:46:37;97548.22;;;0.61;100.00
76406;BME280;65234;50.044;19.258;2022-12-10T05:49:05;97542.25;;;0.56;100.00
76406;BME280;65234;50.044;19.258;2022-12-10T05:51:32;97543.84;;;0.57;100.00
76406;BME280;65234;50.044;19.258;2022-12-10T05:54:00;97536.53;;;0.61;100.00
76406;BME280;65234;50.044;19.258;2022-12-10T05:56:26;97544.63;;;0.57;100.00
76406;BME280;65234;50.044;19.258;2022-12-10T05:58:54;97548.03;;;0.51;100.00
76406;BME280;65234;50.044;19.258;2022-12-10T06:01:22;97543.84;;;0.57;100.00
76406;BME280;65234;50.044;19.258;2022-12-10T06:03:48;97536.13;;;0.59;100.00
76406;BME280;65234;50.044;19.258;2022-12-10T06:06:20;97536.97;;;0.63;100.00
76406;BME280;65234;50.044;19.258;2022-12-10T06:08:46;97526.75;;;0.60;100.00
76406;BME280;65234;50.044;19.258;2022-12-10T06:11:11;97522.84;;;0.57;100.00
76406;BME280;65234;50.044;19.258;2022-12-10T06:13:37;97532.22;;;0.60;100.00
76406;BME280;65234;50.044;19.258;2022-12-10T06:16:04;97543.06;;;0.56;100.00
76406;BME280;65234;50.044;19.258;2022-12-10T06:18:31;97543.13;;;0.60;100.00
76406;BME280;65234;50.044;19.258;2022-12-10T06:20:56;97558.44;;;0.68;100.00
76406;BME280;65234;50.044;19.258;2022-12-10T06:23:23;97564.34;;;0.70;100.00
76406;BME280;65234;50.044;19.258;2022-12-10T06:25:49;97576.81;;;0.71;100.00
76406;BME280;65234;50.044;19.258;2022-12-10T06:28:18;97589.59;;;0.67;100.00
76406;BME280;65234;50.044;19.258;2022-12-10T06:30:44;97592.31;;;0.67;100.00
76406;BME280;65234;50.044;19.258;2022-12-10T06:33:09;97596.91;;;0.63;100.00
76406;BME280;65234;50.044;19.258;2022-12-10T06:35:37;97610.75;;;0.54;100.00
76406;BME280;65234;50.044;19.258;2022-12-10T06:38:02;97603.50;;;0.62;100.00
76406;BME280;65234;50.044;19.258;2022-12-10T06:40:29;97611.22;;;0.60;100.00
76406;BME280;65234;50.044;19.258;2022-12-10T06:42:55;97611.75;;;0.65;100.00
76406;BME280;65234;50.044;19.258;2022-12-10T06:45:21;97620.28;;;0.64;100.00
76406;BME280;65234;50.044;19.258;2022-12-10T06:47:46;97633.88;;;0.64;100.00
76406;BME280;65234;50.044;19.258;2022-12-10T06:50:12;97640.66;;;0.70;100.00
76406;BME280;65234;50.044;19.258;2022-12-10T06:52:38;97644.78;;;0.64;100.00
76406;BME280;65234;50.044;19.258;2022-12-10T06:55:05;97651.41;;;0.63;100.00
76406;BME280;65234;50.044;19.258;2022-12-10T06:57:32;97663.66;;;0.72;100.00
76406;BME280;65234;50.044;19.258;2022-12-10T06:59:57;97667.16;;;0.73;100.00
76406;BME280;65234;50.044;19.258;2022-12-10T07:02:23;97652.28;;;0.67;100.00
76406;BME280;65234;50.044;19.258;2022-12-10T07:04:49;97646.66;;;0.79;100.00
76406;BME280;65234;50.044;19.258;2022-12-10T07:07:14;97644.63;;;0.76;100.00
76406;BME280;65234;50.044;19.258;2022-12-10T07:09:40;97639.75;;;0.85;100.00
76406;BME280;65234;50.044;19.258;2022-12-10T07:12:06;97637.03;;;0.85;100.00
76406;BME280;65234;50.044;19.258;2022-12-10T07:14:33;97640.16;;;0.87;100.00
76406;BME280;65234;50.044;19.258;2022-12-10T07:16:59;97640.31;;;0.94;100.00
76406;BME280;65234;50.044;19.258;2022-12-10T07:19:25;97632.50;;;0.92;100.00
76406;BME280;65234;50.044;19.258;2022-12-10T07:21:51;97639.03;;;0.88;100.00
76406;BME280;65234;50.044;19.258;2022-12-10T07:24:18;97639.88;;;0.92;100.00
76406;BME280;65234;50.044;19.258;2022-12-10T07:26:45;97637.16;;;0.92;100.00
76406;BME280;65234;50.044;19.258;2022-12-10T07:29:13;97640.16;;;0.87;100.00
76406;BME280;65234;50.044;19.258;2022-12-10T07:31:41;97644.47;;;0.88;100.00
76406;BME280;65234;50.044;19.258;2022-12-10T07:34:07;97639.25;;;0.79;100.00
76406;BME280;65234;50.044;19.258;2022-12-10T07:36:32;97644.94;;;0.90;100.00
76406;BME280;65234;50.044;19.258;2022-12-10T07:38:58;97641.53;;;0.97;100.00
76406;BME280;65234;50.044;19.258;2022-12-10T07:41:24;97643.91;;;0.98;100.00
76406;BME280;65234;50.044;19.258;2022-12-10T07:43:51;97654.38;;;0.96;100.00
76406;BME280;65234;50.044;19.258;2022-12-10T07:46:18;97652.88;;;0.99;100.00
76406;BME280;65234;50.044;19.258;2022-12-10T07:48:47;97655.16;;;0.97;100.00
76406;BME280;65234;50.044;19.258;2022-12-10T07:51:13;97660.31;;;1.02;100.00
76406;BME280;65234;50.044;19.258;2022-12-10T07:53:40;97656.06;;;1.04;100.00
76406;BME280;65234;50.044;19.258;2022-12-10T07:56:06;97647.50;;;1.02;100.00
76406;BME280;65234;50.044;19.258;2022-12-10T07:58:32;97659.19;;;1.03;100.00
76406;BME280;65234;50.044;19.258;2022-12-10T08:00:58;97659.09;;;0.99;100.00
76406;BME280;65234;50.044;19.258;2022-12-10T08:03:24;97658.25;;;0.95;100.00
76406;BME280;65234;50.044;19.258;2022-12-10T08:06:01;97648.06;;;0.92;100.00
76406;BME280;65234;50.044;19.258;2022-12-10T08:08:27;97652.16;;;1.02;100.00
76406;BME280;65234;50.044;19.258;2022-12-10T08:10:53;97648.91;;;0.96;100.00
76406;BME280;65234;50.044;19.258;2022-12-10T08:13:18;97648.63;;;1.01;100.00
76406;BME280;65234;50.044;19.258;2022-12-10T08:15:44;97659.25;;;1.06;100.00
76406;BME280;65234;50.044;19.258;2022-12-10T08:18:10;97661.19;;;1.06;100.00
76406;BME280;65234;50.044;19.258;2022-12-10T08:20:42;97652.50;;;1.00;100.00
76406;BME280;65234;50.044;19.258;2022-12-10T08:23:09;97663.97;;;1.09;100.00
76406;BME280;65234;50.044;19.258;2022-12-10T08:25:35;97665.13;;;1.08;100.00
76406;BME280;65234;50.044;19.258;2022-12-10T08:28:01;97663.53;;;1.07;100.00
76406;BME280;65234;50.044;19.258;2022-12-10T08:30:27;97667.56;;;1.13;100.00
76406;BME280;65234;50.044;19.258;2022-12-10T08:32:52;97672.34;;;1.20;100.00
76406;BME280;65234;50.044;19.258;2022-12-10T08:35:18;97663.50;;;1.26;100.00
76406;BME280;65234;50.044;19.258;2022-12-10T08:37:44;97665.06;;;1.27;100.00
76406;BME280;65234;50.044;19.258;2022-12-10T08:40:11;97666.94;;;1.23;100.00
76406;BME280;65234;50.044;19.258;2022-12-10T08:42:37;97668.81;;;1.19;100.00
76406;BME280;65234;50.044;19.258;2022-12-10T08:45:03;97663.34;;;1.19;100.00
76406;BME280;65234;50.044;19.258;2022-12-10T08:47:30;97660.69;;;1.23;100.00
76406;BME280;65234;50.044;19.258;2022-12-10T08:49:55;97662.78;;;1.29;100.00
76406;BME280;65234;50.044;19.258;2022-12-10T08:52:21;97668.53;;;1.24;100.00
76406;BME280;65234;50.044;19.258;2022-12-10T08:54:47;97682.16;;;1.24;100.00
76406;BME280;65234;50.044;19.258;2022-12-10T08:57:14;97674.41;;;1.26;100.00
76406;BME280;65234;50.044;19.258;2022-12-10T08:59:39;97667.00;;;1.27;100.00
76406;BME280;65234;50.044;19.258;2022-12-10T09:02:07;97668.97;;;1.26;100.00
76406;BME280;65234;50.044;19.258;2022-12-10T09:04:35;97665.06;;;1.27;100.00
76406;BME280;65234;50.044;19.258;2022-12-10T09:07:00;97657.44;;;1.36;100.00
76406;BME280;65234;50.044;19.258;2022-12-10T09:09:26;97658.22;;;1.37;100.00
76406;BME280;65234;50.044;19.258;2022-12-10T09:11:52;97657.44;;;1.36;100.00
76406;BME280;65234;50.044;19.258;2022-12-10T09:14:19;97659.06;;;1.41;100.00
76406;BME280;65234;50.044;19.258;2022-12-10T09:16:45;97656.75;;;1.43;100.00
76406;BME280;65234;50.044;19.258;2022-12-10T09:19:10;97658.28;;;1.40;100.00
76406;BME280;65234;50.044;19.258;2022-12-10T09:21:37;97648.94;;;1.41;100.00
76406;BME280;65234;50.044;19.258;2022-12-10T09:24:03;97659.13;;;1.45;100.00
76406;BME280;65234;50.044;19.258;2022-12-10T09:26:28;97657.84;;;1.38;100.00
76406;BME280;65234;50.044;19.258;2022-12-10T09:28:54;97669.31;;;1.48;100.00
76406;BME280;65234;50.044;19.258;2022-12-10T09:31:21;97657.53;;;1.43;100.00
76406;BME280;65234;50.044;19.258;2022-12-10T09:33:49;97652.47;;;1.42;100.00
76406;BME280;65234;50.044;19.258;2022-12-10T09:36:15;97643.56;;;1.45;100.00
76406;BME280;65234;50.044;19.258;2022-12-10T09:38:43;97645.06;;;1.42;100.00
76406;BME280;65234;50.044;19.258;2022-12-10T09:41:23;97645.91;;;1.47;100.00
76406;BME280;65234;50.044;19.258;2022-12-10T09:43:58;97642.75;;;1.45;100.00
76406;BME280;65234;50.044;19.258;2022-12-10T09:46:38;97638.56;;;1.51;100.00
76406;BME280;65234;50.044;19.258;2022-12-10T09:49:13;97634.38;;;1.57;100.00
76406;BME280;65234;50.044;19.258;2022-12-10T09:51:42;97632.84;;;1.59;100.00
76406;BME280;65234;50.044;19.258;2022-12-10T09:54:17;97638.75;;;1.61;100.00
76406;BME280;65234;50.044;19.258;2022-12-10T09:56:44;97631.75;;;1.64;100.00
76406;BME280;65234;50.044;19.258;2022-12-10T09:59:15;97635.63;;;1.63;100.00
76406;BME280;65234;50.044;19.258;2022-12-10T10:01:44;97640.69;;;1.61;100.00
76406;BME280;65234;50.044;19.258;2022-12-10T10:04:11;97644.63;;;1.63;100.00
76406;BME280;65234;50.044;19.258;2022-12-10T10:06:37;97640.38;;;1.66;100.00
76406;BME280;65234;50.044;19.258;2022-12-10T10:09:05;97645.84;;;1.66;100.00
76406;BME280;65234;50.044;19.258;2022-12-10T10:11:34;97648.69;;;1.73;100.00
76406;BME280;65234;50.044;19.258;2022-12-10T10:14:04;97650.63;;;1.72;100.00
76406;BME280;65234;50.044;19.258;2022-12-10T10:16:34;97651.34;;;1.69;100.00
76406;BME280;65234;50.044;19.258;2022-12-10T10:19:03;97652.56;;;1.72;100.00
76406;BME280;65234;50.044;19.258;2022-12-10T10:21:34;97653.66;;;1.67;100.00
76406;BME280;65234;50.044;19.258;2022-12-10T10:24:01;97648.56;;;1.66;100.00
76406;BME280;65234;50.044;19.258;2022-12-10T10:26:28;97651.22;;;1.62;100.00
76406;BME280;65234;50.044;19.258;2022-12-10T10:28:56;97655.59;;;1.67;100.00
76406;BME280;65234;50.044;19.258;2022-12-10T10:31:25;97646.19;;;1.64;100.00
76406;BME280;65234;50.044;19.258;2022-12-10T10:33:53;97646.16;;;1.61;100.00
76406;BME280;65234;50.044;19.258;2022-12-10T10:36:24;97631.34;;;1.62;100.00
76406;BME280;65234;50.044;19.258;2022-12-10T10:38:50;97623.88;;;1.59;100.00
76406;BME280;65234;50.044;19.258;2022-12-10T10:41:17;97625.16;;;1.65;100.00
76406;BME280;65234;50.044;19.258;2022-12-10T10:43:44;97625.75;;;1.55;100.00
76406;BME280;65234;50.044;19.258;2022-12-10T10:46:12;97629.72;;;1.57;100.00
76406;BME280;65234;50.044;19.258;2022-12-10T10:48:40;97634.94;;;1.66;100.00
76406;BME280;65234;50.044;19.258;2022-12-10T10:51:12;97639.91;;;1.60;100.00
76406;BME280;65234;50.044;19.258;2022-12-10T10:53:42;97652.34;;;1.58;100.00
76406;BME280;65234;50.044;19.258;2022-12-10T10:56:12;97645.34;;;1.60;100.00
76406;BME280;65234;50.044;19.258;2022-12-10T10:58:56;97647.00;;;1.65;100.00
76406;BME280;65234;50.044;19.258;2022-12-10T11:01:23;97649.72;;;1.65;100.00
76406;BME280;65234;50.044;19.258;2022-12-10T11:03:54;97645.84;;;1.66;100.00
76406;BME280;65234;50.044;19.258;2022-12-10T11:06:21;97650.13;;;1.67;100.00
76406;BME280;65234;50.044;19.258;2022-12-10T11:08:51;97640.78;;;1.68;100.00
76406;BME280;65234;50.044;19.258;2022-12-10T11:11:22;97633.41;;;1.68;100.00
76406;BME280;65234;50.044;19.258;2022-12-10T11:13:51;97632.91;;;1.63;100.00
76406;BME280;65234;50.044;19.258;2022-12-10T11:16:20;97636.81;;;1.62;100.00
76406;BME280;65234;50.044;19.258;2022-12-10T11:18:55;97640.00;;;1.67;100.00
76406;BME280;65234;50.044;19.258;2022-12-10T11:21:22;97634.50;;;1.64;100.00
76406;BME280;65234;50.044;19.258;2022-12-10T11:23:52;97634.53;;;1.67;100.00
76406;BME280;65234;50.044;19.258;2022-12-10T11:26:36;97634.84;;;1.62;100.00
76406;BME280;65234;50.044;19.258;2022-12-10T11:29:17;97631.28;;;1.58;100.00
76406;BME280;65234;50.044;19.258;2022-12-10T11:31:53;97637.53;;;1.59;100.00
76406;BME280;65234;50.044;19.258;2022-12-10T11:34:30;97634.34;;;1.53;100.00
76406;BME280;65234;50.044;19.258;2022-12-10T11:37:04;97627.13;;;1.41;100.00
76406;BME280;65234;50.044;19.258;2022-12-10T11:39:50;97635.41;;;1.49;100.00
76406;BME280;65234;50.044;19.258;2022-12-10T11:42:25;97638.16;;;1.49;100.00
76406;BME280;65234;50.044;19.258;2022-12-10T11:44:59;97636.56;;;1.48;100.00
76406;BME280;65234;50.044;19.258;2022-12-10T11:47:42;97635.84;;;1.51;100.00
76406;BME280;65234;50.044;19.258;2022-12-10T11:50:25;97641.44;;;1.58;100.00
76406;BME280;65234;50.044;19.258;2022-12-10T11:53:13;97641.28;;;1.51;100.00
76406;BME280;65234;50.044;19.258;2022-12-10T11:55:50;97638.94;;;1.49;100.00
76406;BME280;65234;50.044;19.258;2022-12-10T11:58:33;97649.91;;;1.53;100.00
76406;BME280;65234;50.044;19.258;2022-12-10T12:01:09;97654.63;;;1.56;100.00
76406;BME280;65234;50.044;19.258;2022-12-10T12:03:52;97651.16;;;1.59;100.00
76406;BME280;65234;50.044;19.258;2022-12-10T12:06:33;97645.31;;;1.57;100.00
76406;BME280;65234;50.044;19.258;2022-12-10T12:09:15;97634.38;;;1.57;100.00
76406;BME280;65234;50.044;19.258;2022-12-10T12:12:02;97631.97;;;1.52;100.00
76406;BME280;65234;50.044;19.258;2022-12-10T12:14:34;97626.50;;;1.52;100.00
76406;BME280;65234;50.044;19.258;2022-12-10T12:17:07;97625.53;;;1.40;100.00
76406;BME280;65234;50.044;19.258;2022-12-10T12:19:37;97624.34;;;1.38;100.00
76406;BME280;65234;50.044;19.258;2022-12-10T12:22:11;97621.22;;;1.39;100.00
76406;BME280;65234;50.044;19.258;2022-12-10T12:24:40;97622.81;;;1.40;100.00
76406;BME280;65234;50.044;19.258;2022-12-10T12:27:13;97618.50;;;1.39;100.00
76406;BME280;65234;50.044;19.258;2022-12-10T12:29:44;97627.28;;;1.52;100.00
76406;BME280;65234;50.044;19.258;2022-12-10T12:32:18;97625.66;;;1.48;100.00
76406;BME280;65234;50.044;19.258;2022-12-10T12:34:49;97621.47;;;1.31;100.00
76406;BME280;65234;50.044;19.258;2022-12-10T12:37:17;97623.22;;;1.42;100.00
76406;BME280;65234;50.044;19.258;2022-12-10T12:39:48;97621.97;;;1.36;100.00
76406;BME280;65234;50.044;19.258;2022-12-10T12:42:24;97627.91;;;1.42;100.00
76406;BME280;65234;50.044;19.258;2022-12-10T12:44:59;97624.69;;;1.36;100.00
76406;BME280;65234;50.044;19.258;2022-12-10T12:47:34;97614.53;;;1.33;100.00
76406;BME280;65234;50.044;19.258;2022-12-10T12:50:05;97626.97;;;1.34;100.00
76406;BME280;65234;50.044;19.258;2022-12-10T12:52:42;97619.91;;;1.30;100.00
76406;BME280;65234;50.044;19.258;2022-12-10T12:55:15;97624.53;;;1.26;100.00
76406;BME280;65234;50.044;19.258;2022-12-10T12:57:46;97623.28;;;1.23;100.00